createdAt,value
2023-01-03T00:01:11.797Z,7.50
2023-01-03T00:03:38.981Z,7.50
2023-01-03T00:06:05.981Z,7.60
2023-01-03T00:08:32.909Z,7.60
2023-01-03T00:10:59.897Z,7.60
2023-01-03T00:13:26.723Z,7.50
2023-01-03T00:15:53.627Z,7.30
2023-01-03T00:18:20.501Z,7.40
2023-01-03T00:20:47.488Z,7.30
2023-01-03T00:23:14.373Z,7.30
2023-01-03T00:25:41.198Z,7.20
2023-01-03T00:28:08.254Z,7.30
2023-01-03T00:30:35.655Z,7.20
2023-01-03T00:33:04.135Z,7.10
2023-01-03T00:35:31.093Z,7.00
2023-01-03T00:37:57.949Z,7.10
2023-01-03T00:40:24.815Z,6.90
2023-01-03T00:43:10.331Z,7.00
2023-01-03T00:45:37.268Z,7.10
2023-01-03T00:48:04.196Z,7.00
2023-01-03T00:50:31.126Z,7.00
2023-01-03T00:52:57.979Z,7.10
2023-01-03T00:55:24.836Z,7.20
2023-01-03T00:57:51.801Z,7.00
2023-01-03T01:00:18.775Z,7.10
2023-01-03T01:02:45.772Z,7.20
2023-01-03T01:05:12.716Z,7.10
2023-01-03T01:07:39.561Z,7.10
2023-01-03T01:10:06.605Z,7.10
2023-01-03T01:12:33.438Z,6.90
2023-01-03T01:15:00.363Z,6.90
2023-01-03T01:17:28.440Z,6.90
2023-01-03T01:19:55.575Z,7.10
2023-01-03T01:22:22.478Z,7.10
2023-01-03T01:24:49.416Z,7.10
2023-01-03T01:27:17.078Z,7.20
2023-01-03T01:29:44.014Z,7.00
2023-01-03T01:32:10.895Z,7.00
2023-01-03T01:34:37.791Z,6.90
2023-01-03T01:37:04.710Z,6.80
2023-01-03T01:39:31.541Z,6.70
2023-01-03T01:42:20.204Z,6.80
2023-01-03T01:44:56.095Z,6.70
2023-01-03T01:47:22.981Z,6.80
2023-01-03T01:49:52.313Z,6.90
2023-01-03T01:52:20.115Z,6.80
2023-01-03T01:54:48.240Z,6.80
2023-01-03T01:57:16.586Z,6.70
2023-01-03T01:59:43.517Z,6.60
2023-01-03T02:02:11.068Z,6.50
2023-01-03T02:04:39.171Z,6.30
2023-01-03T02:07:07.288Z,6.40
2023-01-03T02:09:35.543Z,6.40
2023-01-03T02:12:27.568Z,6.30
2023-01-03T02:14:57.449Z,6.20
2023-01-03T02:17:43.031Z,6.10
2023-01-03T02:20:18.900Z,6.20
2023-01-03T02:22:52.017Z,6.20
2023-01-03T02:25:37.638Z,6.20
2023-01-03T02:28:10.555Z,6.10
2023-01-03T02:30:40.392Z,6.10
2023-01-03T02:33:14.987Z,6.20
2023-01-03T02:36:00.406Z,6.20
2023-01-03T02:38:33.045Z,6.20
2023-01-03T02:40:59.867Z,6.20
2023-01-03T02:43:33.103Z,6.00
2023-01-03T02:46:05.145Z,6.00
2023-01-03T02:49:07.444Z,5.90
2023-01-03T02:51:36.817Z,5.80
2023-01-03T02:54:05.241Z,5.80
2023-01-03T02:56:40.181Z,5.70
2023-01-03T02:59:10.339Z,5.80
2023-01-03T03:01:38.010Z,5.90
2023-01-03T03:04:06.888Z,5.70
2023-01-03T03:06:42.676Z,5.60
2023-01-03T03:09:09.570Z,5.70
2023-01-03T03:11:56.580Z,5.60
2023-01-03T03:14:25.332Z,5.70
2023-01-03T03:16:54.056Z,5.80
2023-01-03T03:19:44.194Z,5.70
2023-01-03T03:22:36.771Z,5.60
2023-01-03T03:25:10.672Z,5.50
2023-01-03T03:27:57.782Z,5.50
2023-01-03T03:30:25.644Z,5.50
2023-01-03T03:32:53.786Z,5.40
2023-01-03T03:35:22.231Z,5.50
2023-01-03T03:37:51.759Z,5.40
2023-01-03T03:40:37.206Z,5.50
2023-01-03T03:43:41.803Z,5.50
2023-01-03T03:46:18.296Z,5.40
2023-01-03T03:49:07.193Z,5.30
2023-01-03T03:51:36.304Z,5.40
2023-01-03T03:54:05.625Z,5.20
2023-01-03T03:56:35.240Z,5.20
2023-01-03T03:59:11.148Z,5.20
2023-01-03T04:01:39.011Z,5.20
2023-01-03T04:04:08.673Z,5.20
2023-01-03T04:06:38.893Z,5.10
2023-01-03T04:09:05.762Z,5.10
2023-01-03T04:11:32.815Z,5.20
2023-01-03T04:13:59.695Z,5.20
2023-01-03T04:16:26.609Z,5.10
2023-01-03T04:18:53.524Z,5.00
2023-01-03T04:21:21.094Z,4.90
2023-01-03T04:23:48.371Z,4.70
2023-01-03T04:26:15.284Z,4.60
2023-01-03T04:28:42.143Z,4.50
2023-01-03T04:31:09.099Z,4.40
2023-01-03T04:33:36.040Z,4.50
2023-01-03T04:36:02.901Z,4.40
2023-01-03T04:38:29.761Z,4.30
2023-01-03T04:40:56.605Z,4.30
2023-01-03T04:43:41.976Z,4.20
2023-01-03T04:46:08.854Z,4.20
2023-01-03T04:48:35.862Z,4.10
2023-01-03T04:51:02.658Z,4.10
2023-01-03T04:53:29.524Z,4.10
2023-01-03T04:55:59.432Z,4.10
2023-01-03T04:58:26.745Z,4.10
2023-01-03T05:00:59.160Z,4.00
2023-01-03T05:03:28.177Z,4.00
2023-01-03T05:06:02.056Z,3.90
2023-01-03T05:08:28.969Z,3.90
2023-01-03T05:10:55.852Z,3.90
2023-01-03T05:13:22.775Z,3.90
2023-01-03T05:15:49.741Z,3.90
2023-01-03T05:18:16.623Z,3.80
2023-01-03T05:21:02.741Z,3.80
2023-01-03T05:23:48.364Z,3.80
2023-01-03T05:26:19.444Z,3.80
2023-01-03T05:28:50.697Z,3.90
2023-01-03T05:31:17.883Z,4.00
2023-01-03T05:33:44.730Z,4.10
2023-01-03T05:36:11.610Z,4.10
2023-01-03T05:38:38.673Z,3.90
2023-01-03T05:41:05.937Z,3.80
2023-01-03T05:43:32.805Z,3.70
2023-01-03T05:45:59.784Z,3.60
2023-01-03T05:48:27.117Z,3.70
2023-01-03T05:50:57.299Z,3.60
2023-01-03T05:53:24.578Z,3.50
2023-01-03T05:55:51.377Z,3.50
2023-01-03T05:58:18.298Z,3.50
2023-01-03T06:00:45.270Z,3.50
2023-01-03T06:03:13.645Z,3.70
2023-01-03T06:05:44.710Z,3.60
2023-01-03T06:08:16.787Z,3.50
2023-01-03T06:10:43.680Z,3.70
2023-01-03T06:13:10.704Z,4.00
2023-01-03T06:15:37.814Z,3.40
2023-01-03T06:18:04.745Z,3.50
2023-01-03T06:20:31.749Z,3.40
2023-01-03T06:22:58.783Z,3.50
2023-01-03T06:25:25.723Z,3.40
2023-01-03T06:27:52.647Z,3.50
2023-01-03T06:30:20.873Z,3.60
2023-01-03T06:32:47.986Z,3.50
2023-01-03T06:35:14.917Z,3.70
2023-01-03T06:37:41.983Z,3.60
2023-01-03T06:40:09.088Z,3.70
2023-01-03T06:42:45.246Z,3.60
2023-01-03T06:45:31.573Z,3.70
2023-01-03T06:48:16.915Z,3.70
2023-01-03T06:51:02.834Z,3.60
2023-01-03T06:53:32.225Z,3.60
2023-01-03T06:55:59.416Z,3.50
2023-01-03T06:58:26.314Z,3.60
2023-01-03T07:00:53.458Z,3.60
2023-01-03T07:03:20.626Z,3.50
2023-01-03T07:05:47.611Z,3.50
2023-01-03T07:08:14.540Z,3.50
2023-01-03T07:10:41.380Z,3.50
2023-01-03T07:13:26.791Z,3.50
2023-01-03T07:15:53.778Z,3.40
2023-01-03T07:18:21.035Z,3.40
2023-01-03T07:20:47.952Z,3.30
2023-01-03T07:23:14.908Z,3.30
2023-01-03T07:25:41.955Z,3.30
2023-01-03T07:28:12.943Z,3.40
2023-01-03T07:30:40.694Z,3.40
2023-01-03T07:33:11.759Z,3.40
2023-01-03T07:35:38.723Z,3.40
2023-01-03T07:38:06.037Z,3.50
2023-01-03T07:40:33.057Z,3.60
2023-01-03T07:43:18.683Z,3.50
2023-01-03T07:45:46.175Z,3.60
2023-01-03T07:48:13.595Z,3.80
2023-01-03T07:50:41.011Z,3.70
2023-01-03T07:53:08.300Z,3.70
2023-01-03T07:55:36.014Z,3.70
2023-01-03T07:58:03.111Z,3.70
2023-01-03T08:00:30.048Z,3.80
2023-01-03T08:02:57.061Z,3.80
2023-01-03T08:05:24.490Z,3.90
2023-01-03T08:07:51.946Z,3.90
2023-01-03T08:10:37.993Z,4.00
2023-01-03T08:13:20.349Z,4.00
2023-01-03T08:15:50.158Z,4.00
2023-01-03T08:18:19.144Z,4.00
2023-01-03T08:20:46.651Z,4.10
2023-01-03T08:23:14.175Z,4.20
2023-01-03T08:25:41.083Z,4.20
2023-01-03T08:28:08.593Z,4.30
2023-01-03T08:30:37.711Z,4.20
2023-01-03T08:33:04.967Z,4.40
2023-01-03T08:35:34.621Z,4.30
2023-01-03T08:38:02.243Z,4.30
2023-01-03T08:40:30.004Z,4.60
2023-01-03T08:42:56.887Z,4.80
2023-01-03T08:45:23.774Z,4.70
2023-01-03T08:47:50.638Z,4.90
2023-01-03T08:50:17.565Z,4.90
2023-01-03T08:52:44.450Z,4.80
2023-01-03T08:55:11.240Z,5.10
2023-01-03T08:57:38.205Z,4.90
2023-01-03T09:00:05.796Z,4.90
2023-01-03T09:02:36.673Z,4.70
2023-01-03T09:05:03.942Z,4.90
2023-01-03T09:07:30.917Z,4.90
2023-01-03T09:09:57.699Z,4.90
2023-01-03T09:12:24.793Z,4.80
2023-01-03T09:14:51.581Z,4.90
2023-01-03T09:17:18.758Z,5.00
2023-01-03T09:19:45.663Z,4.90
2023-01-03T09:22:12.457Z,4.90
2023-01-03T09:24:39.332Z,4.90
2023-01-03T09:27:06.241Z,5.00
2023-01-03T09:29:33.157Z,4.80
2023-01-03T09:32:03.434Z,5.00
2023-01-03T09:34:30.462Z,5.30
2023-01-03T09:36:57.340Z,5.70
2023-01-03T09:39:24.227Z,6.10
2023-01-03T09:42:11.199Z,6.10
2023-01-03T09:44:39.754Z,6.50
2023-01-03T09:47:06.714Z,6.50
2023-01-03T09:49:35.916Z,6.70
2023-01-03T09:52:21.520Z,6.50
2023-01-03T09:55:07.201Z,6.40
2023-01-03T09:57:53.729Z,6.40
2023-01-03T10:00:51.227Z,7.10
2023-01-03T10:03:50.939Z,7.30
2023-01-03T10:06:21.749Z,7.90
2023-01-03T10:09:07.147Z,8.30
2023-01-03T10:11:52.948Z,8.40
2023-01-03T10:14:19.806Z,9.30
2023-01-03T10:16:57.137Z,9.90
2023-01-03T10:19:25.125Z,9.20
2023-01-03T10:22:13.029Z,8.50
2023-01-03T10:24:47.545Z,9.40
2023-01-03T10:27:14.557Z,10.70
2023-01-03T10:29:41.618Z,11.50
2023-01-03T10:32:08.470Z,11.90
2023-01-03T10:34:37.347Z,12.80
2023-01-03T10:37:15.602Z,14.10
2023-01-03T10:39:42.470Z,14.50
2023-01-03T10:42:16.314Z,13.70
2023-01-03T10:44:55.790Z,14.40
2023-01-03T10:47:25.155Z,15.00
2023-01-03T10:49:57.929Z,15.60
2023-01-03T10:52:25.679Z,15.50
2023-01-03T10:55:03.660Z,15.70
2023-01-03T10:57:35.324Z,16.20
2023-01-03T11:00:02.324Z,15.30
2023-01-03T11:02:29.368Z,15.90
2023-01-03T11:05:12.359Z,15.70
2023-01-03T11:07:48.892Z,16.40
2023-01-03T11:10:16.807Z,16.30
2023-01-03T11:12:43.801Z,16.20
2023-01-03T11:15:10.680Z,15.60
2023-01-03T11:17:37.563Z,16.30
2023-01-03T11:20:17.305Z,15.70
2023-01-03T11:22:55.826Z,16.30
2023-01-03T11:25:41.389Z,16.00
2023-01-03T11:28:28.491Z,16.40
2023-01-03T11:30:55.385Z,16.10
2023-01-03T11:33:40.615Z,16.50
2023-01-03T11:36:14.759Z,15.70
2023-01-03T11:38:47.522Z,15.80
2023-01-03T11:41:49.805Z,15.90
2023-01-03T11:44:35.309Z,17.20
2023-01-03T11:47:20.806Z,16.60
2023-01-03T11:49:53.692Z,16.20
2023-01-03T11:52:29.972Z,14.30
2023-01-03T11:54:56.828Z,15.10
2023-01-03T11:57:40.377Z,13.60
2023-01-03T12:00:22.239Z,14.00
2023-01-03T12:02:58.083Z,13.60
2023-01-03T12:05:35.836Z,13.20
2023-01-03T12:08:21.376Z,12.50
2023-01-03T12:10:53.706Z,12.40
2023-01-03T12:13:25.251Z,12.10
2023-01-03T12:16:04.470Z,12.30
2023-01-03T12:18:34.217Z,12.90
2023-01-03T12:21:05.023Z,12.30
2023-01-03T12:23:34.952Z,12.00
2023-01-03T12:26:04.432Z,12.60
2023-01-03T12:28:34.404Z,11.90
2023-01-03T12:31:01.201Z,11.90
2023-01-03T12:33:48.996Z,11.60
2023-01-03T12:36:25.104Z,12.00
2023-01-03T12:39:12.295Z,12.50
2023-01-03T12:41:52.563Z,11.80
2023-01-03T12:44:26.118Z,11.80
2023-01-03T12:46:54.921Z,11.90
2023-01-03T12:49:40.765Z,12.10
2023-01-03T12:52:17.030Z,12.20
2023-01-03T12:54:44.389Z,12.40
2023-01-03T12:57:20.008Z,12.60
2023-01-03T13:00:05.544Z,12.50
2023-01-03T13:02:51.105Z,12.20
2023-01-03T13:05:40.865Z,12.00
2023-01-03T13:08:11.891Z,11.90
2023-01-03T13:10:41.539Z,11.80
2023-01-03T13:13:13.826Z,11.80
2023-01-03T13:15:40.742Z,11.90
2023-01-03T13:18:16.781Z,11.90
2023-01-03T13:20:49.679Z,11.90
2023-01-03T13:23:22.828Z,11.80
2023-01-03T13:26:07.724Z,11.70
2023-01-03T13:28:35.429Z,11.60
2023-01-03T13:31:32.239Z,11.60
2023-01-03T13:34:17.624Z,11.30
2023-01-03T13:37:03.272Z,11.40
2023-01-03T13:39:57.687Z,11.50
2023-01-03T13:42:35.374Z,11.60
2023-01-03T13:45:11.116Z,11.70
2023-01-03T13:47:40.580Z,11.70
2023-01-03T13:50:19.851Z,11.80
2023-01-03T13:53:00.780Z,11.90
2023-01-03T13:55:33.822Z,11.90
2023-01-03T13:58:00.761Z,11.90
2023-01-03T14:00:29.642Z,11.70
2023-01-03T14:02:59.642Z,11.40
2023-01-03T14:05:32.748Z,11.30
2023-01-03T14:07:59.561Z,11.30
2023-01-03T14:10:40.757Z,11.30
2023-01-03T14:13:07.697Z,11.50
2023-01-03T14:15:34.582Z,11.60
2023-01-03T14:18:15.020Z,11.70
2023-01-03T14:20:48.071Z,11.60
2023-01-03T14:26:12.833Z,11.00
2023-01-03T14:28:40.052Z,10.80
2023-01-03T14:31:15.540Z,10.60
2023-01-03T14:34:03.491Z,10.50
2023-01-03T14:36:30.499Z,10.40
2023-01-03T14:38:59.033Z,10.30
2023-01-03T14:41:27.522Z,10.20
2023-01-03T14:44:01.836Z,10.20
2023-01-03T14:46:29.474Z,10.10
2023-01-03T14:49:03.447Z,9.90
2023-01-03T14:51:33.071Z,9.90
2023-01-03T14:54:00.623Z,9.90
2023-01-03T14:56:28.074Z,10.00
2023-01-03T14:58:55.275Z,10.00
2023-01-03T15:01:23.386Z,9.90
2023-01-03T15:03:51.412Z,9.80
2023-01-03T15:06:24.442Z,9.70
2023-01-03T15:08:52.671Z,9.50
2023-01-03T15:11:30.958Z,9.50
2023-01-03T15:14:00.576Z,9.40
2023-01-03T15:16:27.405Z,9.50
2023-01-03T15:19:08.383Z,9.50
2023-01-03T15:21:35.459Z,9.30
2023-01-03T15:24:02.445Z,9.20
2023-01-03T15:26:40.206Z,9.10
2023-01-03T15:29:17.859Z,8.90
2023-01-03T15:31:48.041Z,8.70
2023-01-03T15:34:16.883Z,8.50
2023-01-03T15:37:00.957Z,8.40
2023-01-03T15:39:40.455Z,8.40
2023-01-03T15:42:44.768Z,8.30
2023-01-03T15:45:23.280Z,8.10
2023-01-03T15:47:52.951Z,7.80
2023-01-03T15:50:20.293Z,7.80
2023-01-03T15:52:47.664Z,7.80
2023-01-03T15:55:15.026Z,7.80
2023-01-03T15:57:42.848Z,7.80
2023-01-03T16:00:10.709Z,7.80
2023-01-03T16:02:37.617Z,7.70
2023-01-03T16:05:04.675Z,7.80
2023-01-03T16:07:31.523Z,7.80
2023-01-03T16:09:58.388Z,7.90
2023-01-03T16:12:30.320Z,8.00
2023-01-03T16:14:57.229Z,8.00
2023-01-03T16:17:25.846Z,8.20
2023-01-03T16:19:53.170Z,8.60
2023-01-03T16:22:37.081Z,8.50
2023-01-03T16:25:05.665Z,8.40
2023-01-03T16:27:32.614Z,8.30
2023-01-03T16:29:59.581Z,8.20
2023-01-03T16:32:28.229Z,8.10
2023-01-03T16:35:00.346Z,8.00
2023-01-03T16:37:27.517Z,7.90
2023-01-03T16:39:54.805Z,7.90
2023-01-03T16:42:27.597Z,7.90
2023-01-03T16:44:54.924Z,7.90
2023-01-03T16:47:29.893Z,8.00
2023-01-03T16:49:58.335Z,8.00
2023-01-03T16:52:27.004Z,8.00
2023-01-03T16:54:54.425Z,8.00
2023-01-03T16:57:21.765Z,8.00
2023-01-03T16:59:49.242Z,8.00
2023-01-03T17:02:16.287Z,7.90
2023-01-03T17:04:43.252Z,7.70
2023-01-03T17:07:20.878Z,7.60
2023-01-03T17:09:48.912Z,7.50
2023-01-03T17:12:17.328Z,7.30
2023-01-03T17:14:44.177Z,7.20
2023-01-03T17:17:15.969Z,7.10
2023-01-03T17:20:03.246Z,7.10
2023-01-03T17:22:29.771Z,7.10
2023-01-03T17:24:56.590Z,7.10
2023-01-03T17:27:31.911Z,7.00
2023-01-03T17:30:01.952Z,7.10
2023-01-03T17:32:28.912Z,7.10
2023-01-03T17:34:55.784Z,7.10
2023-01-03T17:37:22.839Z,7.00
2023-01-03T17:39:53.916Z,6.90
2023-01-03T17:42:21.896Z,6.90
2023-01-03T17:45:22.648Z,6.70
2023-01-03T17:48:07.944Z,6.60
2023-01-03T17:50:34.857Z,6.30
2023-01-03T17:53:02.021Z,6.20
2023-01-03T17:55:29.873Z,5.90
2023-01-03T17:57:59.632Z,5.90
2023-01-03T18:00:27.704Z,5.90
2023-01-03T18:02:55.721Z,5.80
2023-01-03T18:05:29.027Z,5.80
2023-01-03T18:08:06.656Z,5.90
2023-01-03T18:10:46.763Z,5.60
2023-01-03T18:13:17.997Z,5.40
2023-01-03T18:15:48.392Z,5.30
2023-01-03T18:18:16.830Z,5.20
2023-01-03T18:20:46.962Z,5.10
2023-01-03T18:23:34.589Z,5.10
2023-01-03T18:26:02.762Z,5.00
2023-01-03T18:28:29.874Z,5.10
2023-01-03T18:30:59.591Z,5.10
2023-01-03T18:33:29.968Z,5.00
2023-01-03T18:36:00.211Z,4.90
2023-01-03T18:38:28.875Z,4.90
2023-01-03T18:41:02.559Z,4.90
2023-01-03T18:43:34.514Z,4.80
2023-01-03T18:46:01.774Z,4.70
2023-01-03T18:48:29.250Z,4.70
2023-01-03T18:50:59.443Z,4.60
2023-01-03T18:53:28.839Z,4.50
2023-01-03T18:55:56.327Z,4.50
2023-01-03T18:58:23.331Z,4.40
2023-01-03T19:00:50.240Z,4.40
2023-01-03T19:03:36.069Z,4.40
2023-01-03T19:06:10.666Z,4.20
2023-01-03T19:08:37.907Z,4.30
2023-01-03T19:11:07.046Z,4.50
2023-01-03T19:13:50.981Z,4.70
2023-01-03T19:16:23.299Z,4.60
2023-01-03T19:18:50.735Z,4.40
2023-01-03T19:21:18.565Z,4.40
2023-01-03T19:23:47.619Z,4.70
2023-01-03T19:26:32.862Z,4.90
2023-01-03T19:29:01.853Z,4.70
2023-01-03T19:31:30.972Z,5.10
2023-01-03T19:33:57.926Z,5.10
2023-01-03T19:36:24.787Z,5.20
2023-01-03T19:38:51.776Z,5.40
2023-01-03T19:41:20.197Z,5.90
2023-01-03T19:43:47.614Z,5.80
2023-01-03T19:46:18.323Z,5.90
2023-01-03T19:48:45.529Z,5.80
2023-01-03T19:51:12.667Z,5.70
2023-01-03T19:53:39.643Z,5.50
2023-01-03T19:56:17.184Z,5.40
2023-01-03T19:58:44.310Z,5.30
2023-01-03T20:01:14.694Z,5.10
2023-01-03T20:03:44.047Z,4.90
2023-01-03T20:06:11.985Z,4.90
2023-01-03T20:08:39.006Z,4.70
2023-01-03T20:11:05.881Z,4.60
2023-01-03T20:13:33.124Z,4.50
2023-01-03T20:16:02.027Z,4.50
2023-01-03T20:18:28.944Z,4.50
2023-01-03T20:20:57.915Z,4.40
2023-01-03T20:23:25.427Z,4.30
2023-01-03T20:25:52.389Z,4.30
2023-01-03T20:32:43.971Z,4.30
2023-01-03T20:35:56.176Z,4.50
2023-01-03T20:38:02.581Z,4.60
2023-01-03T20:40:29.385Z,5.10
2023-01-03T20:42:57.658Z,5.10
2023-01-03T20:45:24.566Z,5.00
2023-01-03T20:47:54.249Z,4.90
2023-01-03T20:50:22.867Z,4.80
2023-01-03T20:52:49.837Z,5.00
2023-01-03T20:55:18.367Z,5.00
2023-01-03T20:57:45.451Z,5.00
2023-01-03T21:00:32.255Z,4.90
2023-01-03T21:02:59.435Z,4.80
2023-01-03T21:05:26.566Z,4.80
2023-01-03T21:08:12.049Z,4.90
2023-01-03T21:10:40.481Z,4.80
2023-01-03T21:13:07.707Z,4.80
2023-01-03T21:15:36.501Z,4.80
2023-01-03T21:18:06.592Z,4.80
2023-01-03T21:20:33.708Z,4.80
2023-01-03T21:23:01.045Z,4.90
2023-01-03T21:25:33.196Z,4.90
2023-01-03T21:28:03.218Z,4.90
2023-01-03T21:30:31.225Z,4.90
2023-01-03T21:32:59.656Z,4.80
2023-01-03T21:35:26.622Z,4.80
2023-01-03T21:37:54.047Z,4.70
2023-01-03T21:40:22.310Z,4.70
2023-01-03T21:43:05.531Z,4.60
2023-01-03T21:45:38.125Z,4.50
2023-01-03T21:48:06.560Z,4.50
2023-01-03T21:50:34.147Z,4.50
2023-01-03T21:53:01.229Z,4.40
2023-01-03T21:55:30.736Z,4.50
2023-01-03T21:57:58.212Z,4.50
2023-01-03T22:00:25.113Z,4.50
2023-01-03T22:03:11.103Z,4.50
2023-01-03T22:05:38.012Z,4.40
2023-01-03T22:08:06.527Z,4.40
2023-01-03T22:10:34.387Z,4.30
2023-01-03T22:13:03.206Z,4.30
2023-01-03T22:15:30.042Z,4.30
2023-01-03T22:17:57.387Z,4.30
2023-01-03T22:20:25.781Z,4.20
2023-01-03T22:22:52.880Z,4.10
2023-01-03T22:25:20.785Z,4.00
2023-01-03T22:27:47.879Z,4.00
2023-01-03T22:30:17.098Z,3.90
2023-01-03T22:32:44.299Z,3.90
2023-01-03T22:35:12.082Z,3.70
2023-01-03T22:37:39.137Z,3.70
2023-01-03T22:40:06.797Z,3.60
2023-01-03T22:42:33.751Z,3.40
2023-01-03T22:45:00.672Z,3.40
2023-01-03T22:47:28.312Z,3.40
2023-01-03T22:49:55.244Z,3.40
2023-01-03T22:52:22.420Z,3.30
2023-01-03T22:54:49.985Z,3.70
2023-01-03T22:57:16.786Z,3.70
2023-01-03T22:59:43.713Z,3.60
2023-01-03T23:02:10.772Z,3.70
2023-01-03T23:04:37.783Z,3.70
2023-01-03T23:07:04.875Z,3.40
2023-01-03T23:09:31.741Z,3.30
2023-01-03T23:12:17.277Z,3.40
2023-01-03T23:14:44.157Z,3.50
2023-01-03T23:17:29.975Z,3.40
2023-01-03T23:19:56.887Z,3.30
2023-01-03T23:22:23.726Z,3.10
2023-01-03T23:24:50.616Z,3.10
2023-01-03T23:27:17.467Z,3.10
2023-01-03T23:29:44.431Z,3.20
2023-01-03T23:32:11.354Z,3.40
2023-01-03T23:34:38.160Z,3.60
2023-01-03T23:37:05.145Z,3.60
2023-01-03T23:39:31.979Z,3.40
2023-01-03T23:41:58.858Z,3.40
2023-01-03T23:44:26.596Z,3.40
2023-01-03T23:46:53.526Z,3.40
2023-01-03T23:49:20.547Z,3.30
2023-01-03T23:51:47.428Z,3.40
2023-01-03T23:54:14.266Z,3.40
2023-01-03T23:56:41.274Z,3.40
2023-01-03T23:59:08.167Z,3.40
